logo

United by the hobby
of model aircraft flying

Promoting safe
radio model flying

Sharing the experience
of RC flying

Dedicated to the sport of model aviation

Meeting
Venue

Third Monday Each Month
Crown Point Civic Center
101 S East Street
Crown Point, IN 46307

Read More

email:
[javascript protected email address]

View our events calendar

2020

Weather Conditions

Elev 730 ft    41.19°N  87.16°W

26.1 °F
360°
8 m/h
Wind Variable Wind from North

Current Conditions

Pressure 30.59 in
Visibility 10 miles
Clouds Clear
Dew Point 16.0 °F
Humidity 65 %
Rainfall T0.8 in
 
METAR KVPZ 191556Z AUTO 36007KT 10SM CLR M03/M09 A3059 RMK AO2 SLP370 T10331089

Forecast

INFORMATION PROVIDED BY THE INDIANA STATE FORECAST - NATIONAL WEATHER SERVICE
Sunrise & Sunset
February 19, 2020
6:42 AM

5:29 PM
High 37 | Low 23°F
February 20, 2020
6:40 AM

5:30 PM
High | Low °F
 

our gallery

View All